Terminal Aerodrome Forecast
Issued by NWS

Home | Current Version | Previous Version | Text Only | Print | Product List | Glossary On
Versions: 1 2 3 4 5 6 7 8 9 10 11 12 13 14 15 16 17 18 19 20 21 22 23 24 25 26 27 28 29 30 31 32 33 34 35 36 37 38 39 40 41
000
FTUS44 KHGX 171556 AAC
TAFUTS
TAF AMD
KUTS 171556Z 1716/1812 15004KT P6SM VCSH SCT015 SCT030 SCT250
      TEMPO 1716/1719 VRB12KT 4SM SHRA BKN015
     FM171900 16006KT P6SM VCTS SCT040CB SCT100 BKN250
      TEMPO 1721/1801 VRB05G20KT TSRA BKN035CB OVC250
     FM180100 14006KT P6SM FEW040 BKN250 PROB30 1808/1812 SHRA
      BKN025 OVC100=

USA.gov is the U.S. government's official web portal to all federal, state and local government web resources and services.